Time;durP1;ratioP1;P1;durP2;ratioP2;P2;SDS_P1;SDS_P2;PMS_P1;PMS_P2;Temp;Humidity;BMP_temperature;BMP_pressure;BME280_temperature;BME280_humidity;BME280_pressure;Samples;Min_cycle;Max_cycle;Signal;HPM_P1;HPM_P2
2021/05/12 00:03:38;;;;;;;13.68;4.25;;;;;;;11.40;97.02;101029.59;10359445;28;20037;-74
2021/05/12 00:08:38;;;;;;;12.98;4.05;;;;;;;11.29;96.40;101021.31;10378996;28;20137;-75
2021/05/12 00:13:39;;;;;;;10.73;4.68;;;;;;;11.18;97.71;101004.09;10359300;28;20342;-76
2021/05/12 00:18:43;;;;;;;15.10;4.82;;;;;;;11.37;97.31;101022.22;10356954;28;20048;-76
2021/05/12 00:23:50;;;;;;;14.02;5.43;;;;;;;11.22;98.06;101010.34;10357951;28;20033;-76
2021/05/12 00:28:50;;;;;;;13.18;6.20;;;;;;;11.12;98.51;100983.88;10362537;28;20704;-76
2021/05/12 00:33:51;;;;;;;19.13;9.00;;;;;;;11.27;100.00;101029.00;10376988;28;20038;-76
2021/05/12 00:38:51;;;;;;;26.58;12.55;;;;;;;11.07;100.00;100986.88;10358859;28;20042;-77
2021/05/12 00:43:52;;;;;;;26.27;11.77;;;;;;;11.30;100.00;101028.28;10361877;28;20042;-75
2021/05/12 00:48:52;;;;;;;16.73;10.63;;;;;;;11.21;100.00;101019.59;10343936;28;20411;-76
2021/05/12 00:53:53;;;;;;;17.50;11.00;;;;;;;11.26;100.00;101027.41;10360572;28;20129;-75
2021/05/12 00:58:53;;;;;;;18.48;9.95;;;;;;;11.21;100.00;101025.00;10344729;28;20030;-76
2021/05/12 01:03:54;;;;;;;29.30;10.00;;;;;;;11.25;100.00;101020.44;10357634;28;20045;-76
2021/05/12 01:08:54;;;;;;;22.20;9.57;;;;;;;11.27;100.00;101072.28;10341344;28;20037;-76
2021/05/12 01:13:55;;;;;;;15.93;8.02;;;;;;;11.20;100.00;101039.69;10360133;28;20096;-80
2021/05/12 01:18:56;;;;;;;22.23;9.25;;;;;;;11.03;100.00;101024.69;10357982;28;20042;-76
2021/05/12 01:23:56;;;;;;;18.63;8.10;;;;;;;11.33;100.00;101043.78;10358545;28;20060;-77
2021/05/12 01:28:57;;;;;;;17.50;8.55;;;;;;;11.46;100.00;101062.59;10356864;28;20065;-77
2021/05/12 01:33:58;;;;;;;13.00;8.15;;;;;;;11.23;100.00;101022.72;10357465;28;20088;-82
2021/05/12 01:38:59;;;;;;;13.15;9.38;;;;;;;11.53;100.00;101058.06;10355414;28;20121;-76
2021/05/12 01:44:03;;;;;;;15.68;10.52;;;;;;;11.54;100.00;101064.25;10358305;28;20038;-77
2021/05/12 01:49:04;;;;;;;17.67;11.10;;;;;;;11.47;100.00;101058.72;10343240;28;20041;-81
2021/05/12 01:54:07;;;;;;;17.70;10.95;;;;;;;11.17;100.00;101022.25;10357089;28;20073;-76
2021/05/12 01:59:10;;;;;;;17.95;11.60;;;;;;;11.15;100.00;101031.88;10356570;28;20030;-77
2021/05/12 02:04:10;;;;;;;20.83;12.93;;;;;;;10.64;100.00;100972.53;10360517;28;20045;-78
2021/05/12 02:09:11;;;;;;;20.75;14.40;;;;;;;11.10;100.00;101045.66;10354864;28;20375;-75
2021/05/12 02:14:11;;;;;;;21.98;15.18;;;;;;;10.83;100.00;101015.78;10356449;28;20042;-75
2021/05/12 02:19:11;;;;;;;25.48;15.07;;;;;;;10.95;100.00;101034.56;10356566;28;20121;-75
2021/05/12 02:24:12;;;;;;;19.38;14.20;;;;;;;10.68;100.00;100997.72;10343538;28;20041;-75
2021/05/12 02:29:12;;;;;;;19.02;14.27;;;;;;;10.88;100.00;101029.03;10366675;28;20144;-76
2021/05/12 02:34:13;;;;;;;21.77;14.98;;;;;;;10.88;100.00;101034.44;10347830;28;20057;-76
2021/05/12 02:39:13;;;;;;;26.52;15.60;;;;;;;10.82;100.00;101025.06;10365286;28;20045;-75
2021/05/12 02:44:14;;;;;;;24.05;15.40;;;;;;;10.83;100.00;101031.25;10358659;28;20050;-75
2021/05/12 02:49:14;;;;;;;21.05;15.75;;;;;;;10.87;100.00;101046.41;10355845;28;20164;-75
2021/05/12 02:54:15;;;;;;;19.58;15.10;;;;;;;10.88;100.00;101045.25;10362928;28;20050;-77
2021/05/12 02:59:15;;;;;;;21.45;16.02;;;;;;;10.90;100.00;101053.78;10365910;28;20068;-76
2021/05/12 03:04:16;;;;;;;23.50;16.13;;;;;;;10.81;100.00;101045.09;10347812;28;20046;-76
2021/05/12 03:09:17;;;;;;;18.70;14.35;;;;;;;10.40;100.00;100981.72;10354597;28;20196;-80
2021/05/12 03:14:18;;;;;;;19.63;15.50;;;;;;;10.86;100.00;101058.34;10363894;28;20046;-75
2021/05/12 03:19:18;;;;;;;20.13;14.15;;;;;;;10.87;100.00;101056.44;10358359;28;20116;-76
2021/05/12 03:24:19;;;;;;;17.92;14.45;;;;;;;10.53;100.00;101012.84;10363572;28;20042;-75
2021/05/12 03:29:19;;;;;;;25.13;15.88;;;;;;;10.55;100.00;101022.16;10362271;28;20124;-75
2021/05/12 03:34:19;;;;;;;22.90;13.80;;;;;;;10.54;100.00;101015.22;10359510;28;20046;-78
2021/05/12 03:39:20;;;;;;;26.42;14.50;;;;;;;10.76;100.00;101048.09;10359128;28;20042;-76
2021/05/12 03:44:22;;;;;;;18.27;13.82;;;;;;;10.75;100.00;101051.94;10364592;28;20458;-76
2021/05/12 03:49:22;;;;;;;20.52;14.30;;;;;;;10.79;100.00;101058.19;10362213;28;20050;-78
2021/05/12 03:54:24;;;;;;;21.52;14.95;;;;;;;10.63;100.00;101054.75;10358277;28;20046;-80
2021/05/12 03:59:24;;;;;;;20.67;13.50;;;;;;;10.68;100.00;101078.84;10360727;28;20458;-76
2021/05/12 04:04:25;;;;;;;20.60;14.45;;;;;;;10.42;100.00;101038.88;10362413;28;20037;-75
2021/05/12 04:09:25;;;;;;;23.75;14.27;;;;;;;10.37;100.00;101023.72;10330204;28;20033;-76
2021/05/12 04:14:27;;;;;;;30.02;14.75;;;;;;;9.92;100.00;100965.56;10359304;28;20045;-77
2021/05/12 04:19:27;;;;;;;19.95;14.40;;;;;;;10.62;100.00;101085.66;10359739;28;20038;-77
2021/05/12 04:24:27;;;;;;;23.52;15.00;;;;;;;10.41;100.00;101038.09;10379375;28;20057;-76
2021/05/12 04:29:28;;;;;;;24.83;14.95;;;;;;;10.38;100.00;101038.81;10358187;28;20034;-76
2021/05/12 04:34:29;;;;;;;27.58;18.10;;;;;;;10.74;100.00;101082.81;10359707;28;20037;-79
2021/05/12 04:39:29;;;;;;;28.40;17.88;;;;;;;10.72;100.00;101085.09;10345775;28;20037;-80
2021/05/12 04:44:30;;;;;;;28.35;20.40;;;;;;;10.43;100.00;101052.03;10361657;28;20037;-78
2021/05/12 04:49:30;;;;;;;28.02;19.70;;;;;;;10.80;100.00;101092.22;10342340;28;20060;-77
2021/05/12 04:54:31;;;;;;;25.35;20.98;;;;;;;10.80;100.00;101103.03;10353066;28;20038;-78
2021/05/12 04:59:32;;;;;;;26.73;21.08;;;;;;;10.86;100.00;101085.38;10337123;28;20450;-79
2021/05/12 05:04:32;;;;;;;27.33;21.85;;;;;;;10.87;100.00;101097.78;10345507;28;20034;-78
2021/05/12 05:09:33;;;;;;;27.90;19.70;;;;;;;10.89;100.00;101106.31;10348847;28;20056;-79
2021/05/12 05:14:34;;;;;;;28.02;16.13;;;;;;;10.90;100.00;101113.28;10350861;28;20409;-78
2021/05/12 05:19:34;;;;;;;18.17;12.85;;;;;;;10.45;100.00;101028.16;10348721;28;20038;-77
2021/05/12 05:24:35;;;;;;;18.20;11.05;;;;;;;10.99;100.00;101116.56;10361427;28;20049;-76
2021/05/12 05:29:37;;;;;;;19.95;10.60;;;;;;;11.06;100.00;101120.59;10359691;28;20040;-76
2021/05/12 05:34:37;;;;;;;16.67;9.03;;;;;;;11.13;100.00;101120.72;10322795;28;20370;-79
2021/05/12 05:39:38;;;;;;;13.98;7.53;;;;;;;11.02;100.00;101103.50;10344787;28;20045;-75
2021/05/12 05:44:39;;;;;;;14.95;7.88;;;;;;;11.06;100.00;101115.16;10373542;28;20482;-76
2021/05/12 05:49:39;;;;;;;21.40;8.55;;;;;;;11.27;100.00;101131.06;10373812;28;20045;-76
2021/05/12 05:54:40;;;;;;;18.90;6.97;;;;;;;11.23;100.00;101124.78;10358151;28;20034;-79
2021/05/12 05:59:41;;;;;;;25.02;9.65;;;;;;;11.11;100.00;101090.53;10360577;28;20038;-77
2021/05/12 06:04:41;;;;;;;16.48;6.80;;;;;;;11.32;100.00;101109.88;10366805;28;20061;-76
2021/05/12 06:09:42;;;;;;;18.88;5.90;;;;;;;11.27;100.00;101118.31;10363389;28;21540;-76
2021/05/12 06:14:42;;;;;;;19.88;5.45;;;;;;;11.54;100.00;101126.53;10367324;28;20034;-78
2021/05/12 06:19:43;;;;;;;18.15;7.90;;;;;;;11.04;100.00;101049.81;10347895;28;20050;-77
2021/05/12 06:24:43;;;;;;;15.18;5.93;;;;;;;11.55;100.00;101114.56;10358322;28;20049;-78
2021/05/12 06:29:44;;;;;;;17.83;5.13;;;;;;;11.69;99.21;101136.50;10364509;28;20029;-80
2021/05/12 06:34:44;;;;;;;19.90;4.85;;;;;;;11.65;98.31;101135.66;10357155;28;20036;-77
2021/05/12 06:39:44;;;;;;;18.98;4.30;;;;;;;11.43;95.98;101081.09;10340746;28;20064;-78
2021/05/12 06:44:45;;;;;;;20.15;3.95;;;;;;;11.79;96.12;101130.47;10355578;28;20419;-77
2021/05/12 06:49:46;;;;;;;17.90;4.85;;;;;;;11.81;94.46;101139.03;10363405;28;20056;-78
2021/05/12 06:54:47;;;;;;;20.23;3.72;;;;;;;11.82;91.99;101127.03;10358344;28;20038;-76
2021/05/12 06:59:47;;;;;;;16.75;3.83;;;;;;;11.89;92.46;101139.97;10359508;28;20112;-77
2021/05/12 07:04:47;;;;;;;7.70;3.22;;;;;;;11.77;92.94;101115.72;10362744;28;20099;-76
2021/05/12 07:09:49;;;;;;;16.35;3.83;;;;;;;12.00;92.74;101108.44;10334489;28;20151;-81
2021/05/12 07:14:49;;;;;;;16.73;3.88;;;;;;;12.13;91.96;101111.72;10381781;28;20789;-78
2021/05/12 07:19:49;;;;;;;19.00;4.90;;;;;;;12.22;88.75;101131.22;10359123;28;20064;-78
2021/05/12 07:24:50;;;;;;;16.45;3.40;;;;;;;13.07;84.07;101120.00;10357894;28;20042;-77
2021/05/12 07:29:50;;;;;;;20.85;3.35;;;;;;;15.30;72.92;101138.13;10355955;28;20034;-76
2021/05/12 07:34:52;;;;;;;16.25;3.50;;;;;;;16.24;68.26;101126.22;10374693;28;20080;-77
2021/05/12 07:39:53;;;;;;;12.88;2.75;;;;;;;17.69;59.33;101098.78;10359632;28;20090;-78
2021/05/12 07:44:53;;;;;;;14.05;3.35;;;;;;;18.05;59.19;101104.00;10366661;28;20050;-80
2021/05/12 07:49:54;;;;;;;13.40;2.88;;;;;;;18.41;55.53;101125.53;10343239;28;20057;-78
2021/05/12 07:54:54;;;;;;;11.05;2.97;;;;;;;19.35;53.50;101126.03;10367345;28;20050;-83
2021/05/12 07:59:55;;;;;;;10.27;2.53;;;;;;;19.56;52.13;101113.22;10352709;28;20065;-78
2021/05/12 08:04:55;;;;;;;11.95;2.60;;;;;;;18.25;54.04;101108.88;10370904;28;20042;-75
2021/05/12 08:09:56;;;;;;;9.57;2.22;;;;;;;18.26;52.53;101099.50;10354574;28;20041;-75
2021/05/12 08:14:56;;;;;;;13.77;2.75;;;;;;;19.23;50.98;101124.63;10371768;28;20034;-79
2021/05/12 08:19:59;;;;;;;13.65;2.70;;;;;;;19.31;47.06;101111.63;10362310;28;20406;-79
2021/05/12 08:25:00;;;;;;;11.13;2.60;;;;;;;19.97;47.67;101142.44;10357107;28;20037;-78
2021/05/12 08:30:02;;;;;;;12.05;2.70;;;;;;;20.24;47.49;101129.41;10358237;28;20049;-75
2021/05/12 08:35:03;;;;;;;10.27;3.03;;;;;;;20.88;45.88;101104.69;10362859;28;20462;-75
2021/05/12 08:40:04;;;;;;;10.35;3.17;;;;;;;20.51;46.97;101139.53;10367764;28;20095;-81
2021/05/12 08:45:05;;;;;;;11.68;3.15;;;;;;;21.26;45.22;101123.53;10349051;28;20125;-75
2021/05/12 08:50:08;;;;;;;9.15;2.20;;;;;;;21.37;45.02;101135.09;10357701;28;20081;-77
2021/05/12 08:55:08;;;;;;;;;;;;;;;20.50;46.40;101146.22;10357483;28;20042;-79
2021/05/12 09:00:10;;;;;;;11.40;2.88;;;;;;;20.82;46.22;101111.91;10350509;28;19917;-76
2021/05/12 09:05:11;;;;;;;13.07;3.17;;;;;;;20.68;45.56;101102.75;10335219;28;20497;-81
2021/05/12 09:10:13;;;;;;;12.23;2.50;;;;;;;20.48;45.52;101138.41;10347730;28;20399;-84
2021/05/12 09:15:17;;;;;;;16.02;3.22;;;;;;;20.52;46.82;101132.84;10338269;28;20082;-82
2021/05/12 09:20:26;;;;;;;16.25;2.53;;;;;;;21.51;44.06;101129.28;10353137;28;20089;-79
2021/05/12 09:25:32;;;;;;;10.10;2.80;;;;;;;21.14;43.78;101124.19;10362781;28;20124;-77
2021/05/12 09:30:36;;;;;;;13.00;3.13;;;;;;;21.83;42.73;101111.28;10352317;28;20034;-80
2021/05/12 09:35:41;;;;;;;16.60;3.00;;;;;;;21.46;42.60;101105.06;10357426;28;20034;-77
2021/05/12 09:40:42;;;;;;;18.63;3.97;;;;;;;21.18;43.58;101100.16;10351447;28;20112;-77
2021/05/12 09:45:42;;;;;;;12.90;3.00;;;;;;;20.66;45.51;101099.63;10337247;28;647602;-78
2021/05/12 09:50:43;;;;;;;11.70;2.97;;;;;;;20.27;46.48;101090.16;10355549;28;20049;-77
2021/05/12 09:55:45;;;;;;;12.15;3.83;;;;;;;18.62;49.45;101014.28;10353056;28;20041;-81
2021/05/12 10:00:51;;;;;;;14.63;3.95;;;;;;;19.75;47.96;101065.94;10356346;28;20045;-78
2021/05/12 10:05:52;;;;;;;15.85;3.33;;;;;;;19.62;47.98;101106.88;10354475;28;20030;-77
2021/05/12 10:10:57;;;;;;;17.73;3.80;;;;;;;19.13;49.12;101105.59;10358910;28;20022;-77
2021/05/12 10:15:59;;;;;;;15.07;4.25;;;;;;;18.27;51.00;101060.00;10359487;28;20038;-78
2021/05/12 10:21:00;;;;;;;12.70;3.00;;;;;;;18.27;52.31;101103.78;10356140;28;20380;-76
2021/05/12 10:26:04;;;;;;;21.73;4.27;;;;;;;18.49;50.41;101061.34;10341591;28;20045;-78
2021/05/12 10:31:06;;;;;;;16.70;3.22;;;;;;;18.00;52.55;101047.00;10360988;28;20383;-76
2021/05/12 10:36:09;;;;;;;17.53;4.20;;;;;;;18.26;51.74;101091.31;10359164;28;20149;-75
2021/05/12 10:42:00;;;;;;;22.08;5.35;;;;;;;17.94;53.13;101075.94;10361253;28;20034;-76
2021/05/12 10:47:04;;;;;;;14.95;3.75;;;;;;;17.89;53.47;101084.59;10358759;28;20497;-76
2021/05/12 10:52:07;;;;;;;15.73;4.43;;;;;;;17.59;54.93;101077.78;10363491;28;20038;-76
2021/05/12 10:57:07;;;;;;;;;;;;;;;17.21;55.33;101074.84;10367083;28;20061;-79
2021/05/12 11:02:08;;;;;;;17.48;3.97;;;;;;;17.11;56.26;101067.50;10367139;28;20036;-80
2021/05/12 11:07:09;;;;;;;15.60;3.65;;;;;;;17.23;54.69;101064.31;10360941;28;20049;-78
2021/05/12 11:12:11;;;;;;;18.60;3.50;;;;;;;17.18;54.74;101064.75;10360998;28;20095;-77
2021/05/12 11:17:14;;;;;;;15.30;3.47;;;;;;;17.21;54.31;101080.31;10355118;28;20470;-80
2021/05/12 11:33:02;;;;;;;13.63;3.13;;;;;;;17.98;51.89;101049.34;10362905;28;20493;-75
2021/05/12 11:38:15;;;;;;;12.75;2.88;;;;;;;18.27;50.88;101029.91;10358927;28;20034;-75
2021/05/12 11:43:16;;;;;;;17.17;4.32;;;;;;;18.53;49.28;101031.19;10359645;28;20100;-78
2021/05/12 11:48:22;;;;;;;14.68;3.58;;;;;;;18.65;48.18;101025.19;10357761;28;20137;-77
2021/05/12 11:53:23;;;;;;;15.27;3.22;;;;;;;19.06;48.04;100977.69;10358799;28;20041;-75
2021/05/12 11:58:24;;;;;;;12.40;3.40;;;;;;;19.62;45.69;100980.72;10338620;28;20072;-77
2021/05/12 12:03:26;;;;;;;11.20;2.65;;;;;;;19.15;45.87;100985.41;10358686;28;20034;-79
2021/05/12 12:08:27;;;;;;;11.25;3.20;;;;;;;19.25;46.23;101000.91;10355404;28;20041;-75
2021/05/12 12:13:27;;;;;;;10.93;3.40;;;;;;;19.47;43.45;100951.22;10351399;28;20046;-81
2021/05/12 12:18:33;;;;;;;9.60;2.33;;;;;;;20.24;44.56;100981.19;10358013;28;20052;-80
2021/05/12 12:23:39;;;;;;;11.85;3.22;;;;;;;20.34;41.58;100973.94;10360338;28;20343;-78
2021/05/12 12:29:02;;;;;;;12.40;2.90;;;;;;;20.49;42.49;100996.41;10357926;28;20129;-76
2021/05/12 12:34:24;;;;;;;8.77;2.67;;;;;;;19.97;42.68;100978.56;10360170;28;20077;-77
2021/05/12 12:39:57;;;;;;;15.10;2.90;;;;;;;20.69;42.53;100983.44;10357273;28;20126;-75
2021/05/12 12:44:59;;;;;;;16.98;2.30;;;;;;;20.41;39.48;100912.59;10359594;28;20076;-74
2021/05/12 12:50:02;;;;;;;8.88;2.83;;;;;;;20.48;39.89;100989.34;10354115;28;20053;-73
2021/05/12 12:55:06;;;;;;;9.27;2.47;;;;;;;20.95;38.83;100989.13;10357034;28;20125;-80
2021/05/12 13:00:19;;;;;;;7.05;2.15;;;;;;;20.53;39.98;100985.31;10345901;28;20054;-77
2021/05/12 13:05:20;;;;;;;11.27;2.92;;;;;;;19.49;41.84;100954.31;10354596;28;20045;-79
2021/05/12 13:10:34;;;;;;;12.02;2.70;;;;;;;19.32;42.58;100945.97;10353185;28;20042;-80
2021/05/12 13:15:38;;;;;;;13.07;2.42;;;;;;;19.33;43.02;100980.44;10356737;28;20034;-80
2021/05/12 13:20:42;;;;;;;18.33;4.40;;;;;;;18.98;44.63;100977.03;10345165;28;20034;-80
2021/05/12 13:25:51;;;;;;;14.52;2.28;;;;;;;16.13;57.05;101027.28;10350119;28;20058;-77
2021/05/12 13:30:53;;;;;;;18.60;3.13;;;;;;;14.34;63.91;101025.69;10347969;28;20041;-75
2021/05/12 13:35:56;;;;;;;13.13;2.60;;;;;;;14.05;74.74;101018.53;10355827;28;20032;-73
2021/05/12 13:40:57;;;;;;;10.40;1.48;;;;;;;13.56;78.25;101049.59;10346175;28;20556;-74
2021/05/12 13:45:57;;;;;;;11.30;1.60;;;;;;;13.68;84.11;101022.91;10350171;28;20107;-73
2021/05/12 13:50:58;;;;;;;9.65;1.33;;;;;;;14.20;82.26;101046.59;10356884;28;20137;-76
2021/05/12 14:06:15;;;;;;;2.30;0.60;;;;;;;16.57;67.86;101036.91;10354110;28;20180;-76
2021/05/12 14:11:17;;;;;;;0.90;0.40;;;;;;;16.98;60.78;101028.16;10350266;28;20049;-72
2021/05/12 14:16:31;;;;;;;2.03;0.70;;;;;;;17.15;60.36;101005.44;10351047;28;20045;-73
2021/05/12 14:21:31;;;;;;;3.10;0.60;;;;;;;17.69;54.56;100959.34;10345610;28;20072;-74
2021/05/12 14:26:32;;;;;;;1.63;0.45;;;;;;;18.17;53.47;101007.72;10357161;28;20380;-74
2021/05/12 14:31:32;;;;;;;3.35;0.70;;;;;;;18.62;51.05;101003.31;10354168;28;20443;-77
2021/05/12 14:36:33;;;;;;;3.90;0.85;;;;;;;18.09;50.84;100961.72;10377991;28;20426;-72
2021/05/12 14:41:33;;;;;;;1.83;0.60;;;;;;;18.04;50.63;101014.91;10362652;28;20049;-71
2021/05/12 14:46:34;;;;;;;3.85;0.88;;;;;;;17.98;50.90;101011.06;10357750;28;20025;-72
2021/05/12 14:51:48;;;;;;;3.00;0.88;;;;;;;18.41;48.34;101005.13;10357939;28;20046;-75
2021/05/12 14:56:52;;;;;;;4.50;1.70;;;;;;;18.24;48.81;101000.63;10334436;28;20461;-73
2021/05/12 15:07:11;;;;;;;11.73;1.55;;;;;;;17.59;49.87;101012.16;10357627;28;20049;-73
2021/05/12 15:12:12;;;;;;;4.53;1.45;;;;;;;17.48;50.64;100979.44;10358672;28;20040;-73
2021/05/12 15:17:12;;;;;;;6.05;2.42;;;;;;;17.90;55.30;100987.72;10366668;28;20410;-77
2021/05/12 15:22:13;;;;;;;11.10;1.42;;;;;;;18.25;53.71;100996.69;10357849;28;20057;-74
2021/05/12 15:27:13;;;;;;;4.68;1.02;;;;;;;17.98;54.22;100977.47;10352221;28;20042;-75
2021/05/12 15:32:14;;;;;;;3.38;1.40;;;;;;;17.79;55.48;100987.00;10356181;28;20049;-74
2021/05/12 15:37:14;;;;;;;4.88;1.20;;;;;;;17.69;56.00;100994.88;10337333;28;20037;-73
2021/05/12 15:42:15;;;;;;;9.30;1.73;;;;;;;17.58;56.30;100977.81;10363461;28;20070;-75
2021/05/12 15:47:15;;;;;;;8.07;1.90;;;;;;;17.54;57.18;100960.66;10352118;28;20129;-74
2021/05/12 15:52:16;;;;;;;14.90;2.47;;;;;;;17.55;57.23;100970.41;10360719;28;20029;-75
2021/05/12 15:57:16;;;;;;;3.03;1.20;;;;;;;17.88;55.09;100995.53;10377638;28;20415;-75
2021/05/12 16:02:19;;;;;;;5.45;2.03;;;;;;;17.55;57.83;100986.81;10362769;28;20144;-73
2021/05/12 16:07:19;;;;;;;;;;;;;;;17.50;58.45;100992.72;10365319;28;20073;-74
2021/05/12 16:12:23;;;;;;;169.23;130.45;;;;;;;17.40;59.31;100982.63;10365672;28;19917;-77
2021/05/12 16:17:24;;;;;;;14.25;9.45;;;;;;;17.20;57.83;100953.13;10360709;28;20825;-73
2021/05/12 16:22:25;;;;;;;7.00;3.05;;;;;;;17.32;57.77;100982.69;10371506;28;20125;-74
2021/05/12 16:27:26;;;;;;;5.78;2.00;;;;;;;16.88;59.24;100943.19;10355832;28;20807;-73
2021/05/12 16:32:27;;;;;;;7.00;1.85;;;;;;;16.77;59.04;100950.66;10354921;28;20402;-77
2021/05/12 16:37:32;;;;;;;12.43;3.50;;;;;;;17.16;60.62;100963.28;10374207;28;20033;-76
2021/05/12 16:42:33;;;;;;;10.40;4.45;;;;;;;17.47;57.15;100956.03;10374615;28;20375;-80
2021/05/12 16:47:33;;;;;;;6.65;2.25;;;;;;;17.02;61.64;100963.38;10378158;28;20046;-74
2021/05/12 16:52:34;;;;;;;10.27;3.00;;;;;;;17.03;63.41;100970.41;10351995;28;20042;-77
2021/05/12 16:57:34;;;;;;;5.95;2.08;;;;;;;16.76;60.97;100973.66;10348210;28;20056;-74
2021/05/12 17:02:35;;;;;;;8.52;2.13;;;;;;;16.77;61.37;100964.31;10345667;28;20054;-77
2021/05/12 17:07:35;;;;;;;14.55;3.40;;;;;;;16.69;60.74;100968.22;10342334;28;20038;-77
2021/05/12 17:12:39;;;;;;;10.23;2.25;;;;;;;16.75;62.31;100958.47;10335398;28;20065;-75
2021/05/12 17:17:40;;;;;;;8.13;2.03;;;;;;;16.59;61.92;100936.31;10353614;28;20058;-73
2021/05/12 17:22:41;;;;;;;12.02;2.50;;;;;;;16.67;62.56;100935.09;10347804;28;20034;-76
2021/05/12 17:27:46;;;;;;;7.65;2.10;;;;;;;16.78;63.19;100976.00;10355027;28;20111;-75
2021/05/12 17:32:46;;;;;;;6.95;2.13;;;;;;;16.39;64.18;100920.44;10351203;28;20468;-75
2021/05/12 17:37:51;;;;;;;10.43;2.83;;;;;;;16.42;64.80;100944.19;10349881;28;20039;-76
2021/05/12 17:42:53;;;;;;;10.75;3.38;;;;;;;16.31;66.08;100943.44;10347175;28;20471;-74
2021/05/12 17:47:54;;;;;;;6.95;2.30;;;;;;;16.37;66.18;100974.63;10351109;28;20042;-74
2021/05/12 17:52:58;;;;;;;8.65;1.95;;;;;;;16.21;64.98;100971.56;10330642;28;20058;-74
2021/05/12 17:57:58;;;;;;;7.40;1.90;;;;;;;16.12;64.48;100982.09;10354375;28;20080;-78
2021/05/12 18:02:59;;;;;;;11.35;1.88;;;;;;;15.99;64.23;100992.63;10350183;28;20117;-77
2021/05/12 18:08:04;;;;;;;15.45;2.03;;;;;;;15.51;65.15;100936.59;10343131;28;20045;-78
2021/05/12 18:13:22;;;;;;;3.95;1.63;;;;;;;15.71;66.70;100983.34;10355853;28;20057;-79
2021/05/12 18:18:23;;;;;;;4.40;1.83;;;;;;;15.40;66.80;100949.44;10351975;28;20204;-75
2021/05/12 18:23:23;;;;;;;7.07;2.42;;;;;;;15.47;67.65;100995.75;10362696;28;20038;-77
2021/05/12 18:28:24;;;;;;;9.48;4.65;;;;;;;15.29;69.74;100959.56;10344894;28;20042;-76
2021/05/12 18:33:27;;;;;;;9.48;3.47;;;;;;;15.40;70.63;100990.28;10353845;28;20030;-77
2021/05/12 18:38:30;;;;;;;5.68;2.50;;;;;;;15.23;70.68;100992.59;10350920;28;20030;-79
2021/05/12 18:43:31;;;;;;;5.10;2.13;;;;;;;15.00;70.31;100994.91;10338321;28;20084;-75
2021/05/12 18:48:31;;;;;;;5.47;2.42;;;;;;;14.79;69.76;100966.47;10358435;28;20141;-75
2021/05/12 18:53:32;;;;;;;6.57;2.50;;;;;;;14.82;70.91;101004.97;10361033;28;20037;-77
2021/05/12 18:58:33;;;;;;;6.80;2.75;;;;;;;14.28;72.23;100945.66;10356883;28;20046;-80
2021/05/12 19:03:33;;;;;;;6.07;2.88;;;;;;;14.47;73.02;100995.47;10357485;28;20053;-75
2021/05/12 19:08:59;;;;;;;6.60;2.83;;;;;;;14.34;73.69;100976.75;10353978;28;20061;-75
2021/05/12 19:14:17;;;;;;;4.97;2.55;;;;;;;13.95;74.69;100950.16;10366359;28;20133;-76
2021/05/12 19:24:40;;;;;;;5.53;2.40;;;;;;;13.98;76.29;100991.31;10355238;28;20620;-76
2021/05/12 19:40:31;;;;;;;6.05;2.25;;;;;;;13.74;77.42;100993.50;10356369;28;20216;-73
2021/05/12 19:45:32;;;;;;;7.93;3.28;;;;;;;13.74;77.82;100998.91;10344515;28;20049;-76
2021/05/12 19:50:32;;;;;;;9.95;2.45;;;;;;;13.67;76.71;100985.28;10359457;28;20179;-74
2021/05/12 19:55:38;;;;;;;14.75;6.82;;;;;;;13.62;76.59;100991.06;10356592;28;20046;-79
2021/05/12 20:00:42;;;;;;;9.63;3.83;;;;;;;13.13;75.85;100916.16;10359395;28;20048;-75
2021/05/12 20:10:53;;;;;;;10.63;3.20;;;;;;;13.48;75.89;100997.94;10359616;28;20068;-80
2021/05/12 20:15:53;;;;;;;7.55;3.30;;;;;;;13.32;75.78;100978.41;10354913;28;20425;-78
2021/05/12 20:20:54;;;;;;;5.82;2.20;;;;;;;12.78;74.75;100911.94;10358816;28;20029;-79
2021/05/12 20:25:54;;;;;;;9.45;3.13;;;;;;;13.10;76.49;100978.16;10353633;28;20486;-75
2021/05/12 20:30:55;;;;;;;8.88;2.63;;;;;;;12.84;78.11;100978.25;10358228;28;20049;-74
2021/05/12 20:41:15;;;;;;;6.45;3.47;;;;;;;12.54;82.99;100983.75;10354392;28;20038;-81
2021/05/12 20:46:15;;;;;;;9.50;3.63;;;;;;;12.34;85.31;100980.38;10361192;28;20060;-81
2021/05/12 20:51:16;;;;;;;10.45;3.20;;;;;;;12.17;86.29;100971.63;10359824;28;20054;-82
2021/05/12 20:56:16;;;;;;;6.68;4.13;;;;;;;12.13;86.53;100978.94;10372975;28;20654;-80
2021/05/12 21:01:17;;;;;;;8.40;3.83;;;;;;;12.04;87.07;100983.84;10346926;28;20046;-80
2021/05/12 21:06:18;;;;;;;9.10;3.83;;;;;;;11.96;87.25;100976.75;10356298;28;20037;-81
2021/05/12 21:11:20;;;;;;;10.38;5.00;;;;;;;11.88;87.35;100980.53;10351145;28;20045;-80
2021/05/12 21:16:21;;;;;;;5.67;3.50;;;;;;;11.71;88.59;100971.75;10355268;28;20050;-81
2021/05/12 21:21:43;;;;;;;10.20;3.25;;;;;;;11.60;91.08;100970.78;10340048;28;20297;-82
2021/05/12 21:26:43;;;;;;;8.15;4.10;;;;;;;11.55;90.47;100955.63;10353269;28;20065;-75
2021/05/12 21:31:47;;;;;;;6.13;3.00;;;;;;;11.26;88.49;100913.75;10357285;28;20120;-80
2021/05/12 21:36:47;;;;;;;11.30;4.45;;;;;;;11.15;88.47;100907.41;10357470;28;22057;-76
2021/05/12 21:41:50;;;;;;;9.25;3.63;;;;;;;11.08;88.93;100907.28;10355187;28;20042;-74
2021/05/12 21:46:51;;;;;;;;;;;;;;;11.30;89.47;100941.66;10361142;28;20129;-73
2021/05/12 21:51:51;;;;;;;11.03;4.33;;;;;;;11.10;89.67;100910.41;10357722;28;19928;-74
2021/05/12 21:56:52;;;;;;;7.60;3.53;;;;;;;11.04;89.39;100917.25;10353592;28;20300;-75
2021/05/12 22:01:52;;;;;;;7.25;3.88;;;;;;;11.09;90.67;100933.19;10354255;28;20033;-76
2021/05/12 22:07:12;;;;;;;9.18;4.32;;;;;;;11.06;91.29;100936.63;10336009;28;20042;-77
2021/05/12 22:28:22;;;;;;;5.97;3.40;;;;;;;10.77;93.00;100920.66;10354032;28;20096;-78
2021/05/12 22:33:23;;;;;;;7.45;4.10;;;;;;;10.48;93.31;100892.28;10350828;28;20049;-75
2021/05/12 22:38:23;;;;;;;10.30;4.05;;;;;;;10.62;93.09;100918.03;10358195;28;20037;-75
2021/05/12 22:43:23;;;;;;;6.05;3.20;;;;;;;10.28;93.06;100877.22;10367670;28;20041;-75
2021/05/12 22:48:24;;;;;;;4.88;2.90;;;;;;;10.10;93.11;100864.13;10361964;28;20121;-74
2021/05/12 22:53:25;;;;;;;8.77;3.97;;;;;;;10.13;93.34;100871.50;10356655;28;20382;-74
2021/05/12 22:58:26;;;;;;;6.75;3.08;;;;;;;10.30;93.15;100910.88;10378666;28;20386;-75
2021/05/12 23:03:27;;;;;;;13.63;4.43;;;;;;;10.27;93.39;100913.47;10365620;28;20045;-78
2021/05/12 23:08:27;;;;;;;8.68;3.80;;;;;;;10.18;94.05;100904.78;10364915;28;20323;-81
2021/05/12 23:13:28;;;;;;;9.80;3.90;;;;;;;10.03;94.13;100876.69;10363980;28;20030;-78
2021/05/12 23:18:28;;;;;;;8.10;3.80;;;;;;;9.91;94.37;100869.50;10353600;28;20044;-81
2021/05/12 23:23:31;;;;;;;9.23;4.05;;;;;;;9.32;96.03;100790.34;10354553;28;20041;-80
2021/05/12 23:28:32;;;;;;;9.38;3.63;;;;;;;10.10;96.20;100915.44;10364537;28;20034;-81
2021/05/12 23:33:33;;;;;;;7.63;4.10;;;;;;;10.02;96.00;100908.34;10363354;28;20045;-81
2021/05/12 23:38:33;;;;;;;7.30;4.10;;;;;;;9.88;96.01;100897.22;10360998;28;20053;-81
2021/05/12 23:43:34;;;;;;;9.25;4.25;;;;;;;9.80;97.31;100895.50;10344516;28;20132;-81
2021/05/12 23:48:34;;;;;;;7.65;4.55;;;;;;;9.76;98.44;100900.03;10326860;28;20070;-81
2021/05/12 23:53:35;;;;;;;6.93;4.05;;;;;;;9.54;97.86;100867.16;10357889;28;20030;-81
2021/05/12 23:58:35;;;;;;;6.10;4.38;;;;;;;9.41;99.60;100863.00;10364242;28;20399;-81
